This is the latest recevied weather packets stored in our database for station/object K3HW. If no packets are shown the sender has not sent any weather packets the latest 10 day(s).
| Time | Temp. | Humidity | Pressure | Rain* | Wind** | Luminosity | Snow |
|---|---|---|---|---|---|---|---|
| 1777827204 | 12.22° C | 39% | 1017 hPa | 0 mm | - | 254 W/m² | - |
| 1777826899 | 12.22° C | 37% | 1017 hPa | 0 mm | - | 342 W/m² | - |
| 1777826597 | 12.22° C | 42% | 1017 hPa | 0 mm | - | 523 W/m² | - |
| 1777826293 | 11.67° C | 41% | 1017.2 hPa | 0 mm | - | 857 W/m² | - |
| 1777825991 | 12.22° C | 38% | 1017.2 hPa | 0 mm | - | 187 W/m² | - |
| 1777825687 | 11.11° C | 42% | 1017.5 hPa | 0 mm | - | 148 W/m² | - |
| 1777825385 | 11.11° C | 42% | 1017.5 hPa | 0 mm | - | 138 W/m² | - |
| 1777825082 | 11.67° C | 41% | 1017.4 hPa | 0 mm | - | 871 W/m² | - |
| 1777824778 | 12.22° C | 41% | 1017.3 hPa | 0 mm | - | 817 W/m² | - |
| 1777824475 | 12.22° C | 40% | 1017.4 hPa | 0 mm | - | 769 W/m² | - |
| 1777824171 | 11.67° C | 41% | 1017.7 hPa | 0 mm | - | 695 W/m² | - |
| 1777823867 | 11.11° C | 45% | 1017.6 hPa | 0 mm | - | 385 W/m² | - |
| 1777823565 | 11.11° C | 46% | 1017.5 hPa | 0 mm | - | 120 W/m² | - |
| 1777823262 | 12.22° C | 41% | 1017.3 hPa | 0 mm | - | 826 W/m² | - |
| 1777822959 | 10.56° C | 47% | 1017.6 hPa | 0 mm | - | 801 W/m² | - |
| 1777822657 | 10° C | 46% | 1017.4 hPa | 0 mm | - | 176 W/m² | - |
| 1777822355 | 10.56° C | 47% | 1017.6 hPa | 0 mm | - | 101 W/m² | - |
| 1777822052 | 11.11° C | 46% | 1017.5 hPa | 0 mm | - | 168 W/m² | - |
| 1777821750 | 11.11° C | 43% | 1017.4 hPa | 0 mm | - | 137 W/m² | - |
| 1777821447 | 10° C | 48% | 1017.6 hPa | 0 mm | - | 690 W/m² | - |
| 1777821144 | 10° C | 48% | 1017.6 hPa | 0 mm | - | 131 W/m² | - |
| 1777820841 | 10.56° C | 49% | 1017.6 hPa | 0 mm | - | 115 W/m² | - |
| 1777820537 | 10.56° C | 45% | 1017.6 hPa | 0 mm | - | 99 W/m² | - |
| 1777820234 | 11.67° C | 45% | 1017.4 hPa | 0 mm | - | 91 W/m² | - |
| 1777819931 | 10.56° C | 46% | 1017.5 hPa | 0 mm | - | 147 W/m² | - |
* Rain latest hour (hover to see other rain measurements)
** Current wind speed in m/s (hover to see current wind gust speed)